• Join FlightAware (Why Join?)
  • Login
  • US Flag 
11:06AM EDT


 

Airport Tracker/Info


-or-


 

Live Flight TrackerFlight Track Log ✈ EJA831 ✈ 26-Sep-2013 ✈ KSJC - KSBA

Flight Track Log - Related Links

Times and Time Zones

All times are in EDT time to prevent confusion due to time zone crossing. See the EJA831 flight status page for this flight to view local times or setup timezone preferences in your user account.

Time Position Orientation Groundspeed Altitude Reporting Facility
EDT Latitude Longitude Course Direction KTS MPH feet Rate Location/Type
03:59PM 37.3833 -121.9500 138° Southeast 158 182 2,000  Level Northern Cal TRACON
04:00PM 37.4167 -121.9833 322° Northwest 203 234 5,000 1,500 Climbing Northern Cal TRACON
04:01PM 37.4333 -121.9167 73° East 228 262 5,000 180 Level Northern Cal TRACON
04:02PM 37.3833 -121.8500 133° Southeast 235 270 5,400 1,800 Climbing Northern Cal TRACON
04:03PM 37.3500 -121.8000 130° Southeast 245 282 8,700 3,600 Climbing Northern Cal TRACON
04:04PM 37.2667 -121.7333 148° Southeast 314 361 12,600 3,420 Climbing Northern Cal TRACON
04:05PM 36.9786 -121.6455 138° Southeast  Level Estimated
04:06PM 37.1872 -121.6339 135° Southeast 346 398 16,600  Level Oakland Center
04:07PM 37.1047 -121.5428 139° Southeast 397 457 17,000 180 Climbing Oakland Center
04:08PM 37.0228 -121.4536 139° Southeast 422 486 17,000  Level Oakland Center
04:09PM 36.9161 -121.3383 139° Southeast 422 486 17,000  Level Oakland Center
04:10PM 36.8294 -121.2428 139° Southeast 417 480 17,000  Level Oakland Center
04:11PM 36.7444 -121.1511 139° Southeast 419 482 17,000  Level Oakland Center
04:12PM 36.6572 -121.0583 140° Southeast 416 479 17,000  Level Oakland Center
04:13PM 36.5694 -120.9614 138° Southeast 419 482 17,000  Level Oakland Center
04:14PM 36.4808 -120.8669 139° Southeast 420 483 17,000  Level Oakland Center
04:15PM 36.3936 -120.7681 138° Southeast 424 488 17,000  Level Oakland Center
04:16PM 36.2878 -120.6550 139° Southeast 420 483 17,000  Level Oakland Center
04:17PM 36.1978 -120.5647 141° Southeast 417 480 17,000  Level Oakland Center
04:18PM 36.1028 -120.4803 144° Southeast 428 493 17,000  Level Oakland Center
04:19PM 35.9908 -120.4533 169° South 409 471 17,000  Level Oakland Center
04:20PM 35.8783 -120.4253 169° South 410 472 17,000  Level Oakland Center
04:21PM 35.7650 -120.3969 169° South 414 476 17,000  Level Oakland Center
04:22PM 35.6508 -120.3669 168° South 417 480 17,000  Level Oakland Center
04:23PM 35.5369 -120.3392 169° South 417 480 17,000  Level Oakland Center
04:24PM 35.4208 -120.3103 169° South 414 476 17,000  Level Oakland Center
04:25PM 35.3081 -120.2800 168° South 414 476 17,100  Climbing Oakland Center
04:26PM 35.1911 -120.2522 169° South 409 471 17,100 -420 Level Oakland Center
04:27PM 35.0581 -120.2200 169° South 407 468 16,300 -1,140 Descending Oakland Center
04:28PM 34.9467 -120.1925 169° South 408 470 14,800 -1,440 Descending Oakland Center
04:29PM 34.8372 -120.1653 168° South 404 465 13,400 -1,440 Descending Oakland Center
04:30PM 34.7614 -120.1481 169° South 374 430 12,400 -1,200 Descending Los Angeles Center
04:31PM 34.7044 -120.1325 167° South 348 400 11,600 -1,140 Descending Los Angeles Center
04:31PM 34.6744 -120.1261 170° South 309 356 11,300 -1,200 Descending Los Angeles Center
04:32PM 34.6069 -120.1094 169° South 301 346 10,400 -1,020 Descending Los Angeles Center
04:32PM 34.5947 -120.1072 171° South 285 328 10,300 -900 Descending Los Angeles Center
04:33PM 34.5308 -120.0867 165° South 282 325 9,500 -900 Descending Los Angeles Center
04:33PM 34.5256 -120.0772 124° Southeast 266 306 9,400 -1,080 Descending Los Angeles Center
04:34PM 34.4867 -120.0269 133° Southeast 253 291 8,400 -1,380 Descending Los Angeles Center
04:34PM 34.4631 -120.0192 165° South 269 310 7,900 -1,260 Descending Los Angeles Center
04:35PM 34.4153 -119.9964 159° South 264 304 7,100 -1,140 Descending Los Angeles Center
04:35PM 34.4025 -119.9889 154° Southeast 237 273 6,800 -1,260 Descending Los Angeles Center
04:36PM 34.3775 -119.9489 127° Southeast 239 275 5,800 -1,560 Descending Los Angeles Center
04:36PM 34.3775 -119.9344 90° East 208 239 5,400 -1,860 Descending Los Angeles Center
04:37PM 34.3819 -119.8736 85° East 194 223 3,900 -1,560 Descending Los Angeles Center
04:37PM 34.3817 -119.8656 92° East 181 208 3,700 -1,740 Descending Los Angeles Center
04:38PM 34.3794 -119.8064 93° East 186 214 2,000 -1,440 Descending Los Angeles Center
04:38PM 34.3769 -119.8139 248° West 182 209 2,100 -900 Climbing Los Angeles Center
04:39PM 34.4053 -119.7875 38° Northeast 139 160 1,200 -1,080 Descending Los Angeles Center
04:39PM 34.4083 -119.7903 323° Northwest 156 180 1,000 -900 Descending Los Angeles Center
04:40PM 34.4244 -119.8047 324° Northwest 112 129 500 -540 Descending Los Angeles Center
04:40PM 34.4281 -119.8081 323° Northwest 131 151 500  Level Los Angeles Center
04:43PM 34.4167 -119.8333 331° Northwest  Level FlightAware Approximate